sensor_id;sensor_type;location;lat;lon;timestamp;temperature;humidity
4695;DHT22;2361;49.540;8.390;2024-03-17T00:01:26;9.90;99.90
4695;DHT22;2361;49.540;8.390;2024-03-17T00:03:47;9.90;99.90
4695;DHT22;2361;49.540;8.390;2024-03-17T00:06:08;9.90;99.90
4695;DHT22;2361;49.540;8.390;2024-03-17T00:08:29;9.90;99.90
4695;DHT22;2361;49.540;8.390;2024-03-17T00:10:54;9.90;99.90
4695;DHT22;2361;49.540;8.390;2024-03-17T00:13:18;9.90;99.90
4695;DHT22;2361;49.540;8.390;2024-03-17T00:15:39;9.80;99.90
4695;DHT22;2361;49.540;8.390;2024-03-17T00:17:59;9.80;99.90
4695;DHT22;2361;49.540;8.390;2024-03-17T00:20:20;9.80;99.90
4695;DHT22;2361;49.540;8.390;2024-03-17T00:22:42;9.80;99.90
4695;DHT22;2361;49.540;8.390;2024-03-17T00:25:03;9.80;99.90
4695;DHT22;2361;49.540;8.390;2024-03-17T00:27:24;9.70;99.90
4695;DHT22;2361;49.540;8.390;2024-03-17T00:29:45;9.70;99.90
4695;DHT22;2361;49.540;8.390;2024-03-17T00:32:06;9.70;99.90
4695;DHT22;2361;49.540;8.390;2024-03-17T00:34:27;9.70;99.90
4695;DHT22;2361;49.540;8.390;2024-03-17T00:36:49;9.70;99.90
4695;DHT22;2361;49.540;8.390;2024-03-17T00:39:09;9.70;99.90
4695;DHT22;2361;49.540;8.390;2024-03-17T00:41:30;9.70;99.90
4695;DHT22;2361;49.540;8.390;2024-03-17T00:43:51;9.60;99.90
4695;DHT22;2361;49.540;8.390;2024-03-17T00:46:12;9.60;99.90
4695;DHT22;2361;49.540;8.390;2024-03-17T00:48:33;9.60;99.90
4695;DHT22;2361;49.540;8.390;2024-03-17T00:50:58;9.60;99.90
4695;DHT22;2361;49.540;8.390;2024-03-17T00:53:19;9.60;99.90
4695;DHT22;2361;49.540;8.390;2024-03-17T00:55:39;9.50;99.90
4695;DHT22;2361;49.540;8.390;2024-03-17T00:58:00;9.50;99.90
4695;DHT22;2361;49.540;8.390;2024-03-17T01:00:21;9.50;99.90
4695;DHT22;2361;49.540;8.390;2024-03-17T01:02:42;9.60;99.90
4695;DHT22;2361;49.540;8.390;2024-03-17T01:05:03;9.60;99.90
4695;DHT22;2361;49.540;8.390;2024-03-17T01:07:26;9.60;99.90
4695;DHT22;2361;49.540;8.390;2024-03-17T01:09:47;9.60;99.90
4695;DHT22;2361;49.540;8.390;2024-03-17T01:12:08;9.50;99.90
4695;DHT22;2361;49.540;8.390;2024-03-17T01:14:30;9.50;99.90
4695;DHT22;2361;49.540;8.390;2024-03-17T01:16:51;9.50;99.90
4695;DHT22;2361;49.540;8.390;2024-03-17T01:19:12;9.50;99.90
4695;DHT22;2361;49.540;8.390;2024-03-17T01:21:33;9.50;99.90
4695;DHT22;2361;49.540;8.390;2024-03-17T01:23:54;9.50;99.90
4695;DHT22;2361;49.540;8.390;2024-03-17T01:26:15;9.50;99.90
4695;DHT22;2361;49.540;8.390;2024-03-17T01:28:36;9.50;99.90
4695;DHT22;2361;49.540;8.390;2024-03-17T01:30:56;9.50;99.90
4695;DHT22;2361;49.540;8.390;2024-03-17T01:33:17;9.50;99.90
4695;DHT22;2361;49.540;8.390;2024-03-17T01:35:38;9.50;99.90
4695;DHT22;2361;49.540;8.390;2024-03-17T01:37:59;9.50;99.90
4695;DHT22;2361;49.540;8.390;2024-03-17T01:40:20;9.50;99.90
4695;DHT22;2361;49.540;8.390;2024-03-17T01:42:41;9.40;99.90
4695;DHT22;2361;49.540;8.390;2024-03-17T01:47:39;9.30;99.90
4695;DHT22;2361;49.540;8.390;2024-03-17T01:50:00;9.30;99.90
4695;DHT22;2361;49.540;8.390;2024-03-17T01:52:21;9.20;99.90
4695;DHT22;2361;49.540;8.390;2024-03-17T01:54:42;9.10;99.90
4695;DHT22;2361;49.540;8.390;2024-03-17T01:57:03;9.10;99.90
4695;DHT22;2361;49.540;8.390;2024-03-17T01:59:24;9.10;99.90
4695;DHT22;2361;49.540;8.390;2024-03-17T02:01:46;9.00;99.90
4695;DHT22;2361;49.540;8.390;2024-03-17T02:04:06;8.90;99.90
4695;DHT22;2361;49.540;8.390;2024-03-17T02:06:27;9.00;99.90
4695;DHT22;2361;49.540;8.390;2024-03-17T02:08:51;9.00;99.90
4695;DHT22;2361;49.540;8.390;2024-03-17T02:11:27;9.00;99.90
4695;DHT22;2361;49.540;8.390;2024-03-17T02:13:48;9.00;99.90
4695;DHT22;2361;49.540;8.390;2024-03-17T02:16:09;8.90;99.90
4695;DHT22;2361;49.540;8.390;2024-03-17T02:18:30;8.90;99.90
4695;DHT22;2361;49.540;8.390;2024-03-17T02:20:51;8.90;99.90
4695;DHT22;2361;49.540;8.390;2024-03-17T02:23:19;8.90;99.90
4695;DHT22;2361;49.540;8.390;2024-03-17T02:25:40;8.80;99.90
4695;DHT22;2361;49.540;8.390;2024-03-17T02:28:02;8.80;99.90
4695;DHT22;2361;49.540;8.390;2024-03-17T02:30:22;8.80;99.90
4695;DHT22;2361;49.540;8.390;2024-03-17T02:32:43;8.80;99.90
4695;DHT22;2361;49.540;8.390;2024-03-17T02:35:04;8.70;99.90
4695;DHT22;2361;49.540;8.390;2024-03-17T02:37:26;8.70;99.90
4695;DHT22;2361;49.540;8.390;2024-03-17T02:39:47;8.70;99.90
4695;DHT22;2361;49.540;8.390;2024-03-17T02:42:10;8.60;99.90
4695;DHT22;2361;49.540;8.390;2024-03-17T02:44:32;8.60;99.90
4695;DHT22;2361;49.540;8.390;2024-03-17T02:46:53;8.60;99.90
4695;DHT22;2361;49.540;8.390;2024-03-17T02:49:13;8.60;99.90
4695;DHT22;2361;49.540;8.390;2024-03-17T02:51:38;8.60;99.90
4695;DHT22;2361;49.540;8.390;2024-03-17T02:53:59;8.50;99.90
4695;DHT22;2361;49.540;8.390;2024-03-17T02:56:20;8.50;99.90
4695;DHT22;2361;49.540;8.390;2024-03-17T02:58:42;8.50;99.90
4695;DHT22;2361;49.540;8.390;2024-03-17T03:01:04;8.40;99.90
4695;DHT22;2361;49.540;8.390;2024-03-17T03:03:28;8.40;99.90
4695;DHT22;2361;49.540;8.390;2024-03-17T03:05:48;8.40;99.90
4695;DHT22;2361;49.540;8.390;2024-03-17T03:08:09;8.30;99.90
4695;DHT22;2361;49.540;8.390;2024-03-17T03:10:30;8.30;99.90
4695;DHT22;2361;49.540;8.390;2024-03-17T03:12:51;8.30;99.90
4695;DHT22;2361;49.540;8.390;2024-03-17T03:15:12;8.20;99.90
4695;DHT22;2361;49.540;8.390;2024-03-17T03:17:33;8.20;99.90
4695;DHT22;2361;49.540;8.390;2024-03-17T03:19:54;8.30;99.90
4695;DHT22;2361;49.540;8.390;2024-03-17T03:22:16;8.30;99.90
4695;DHT22;2361;49.540;8.390;2024-03-17T03:24:37;8.30;99.90
4695;DHT22;2361;49.540;8.390;2024-03-17T03:26:57;8.20;99.90
4695;DHT22;2361;49.540;8.390;2024-03-17T03:29:18;8.20;99.90
4695;DHT22;2361;49.540;8.390;2024-03-17T03:31:40;8.20;99.90
4695;DHT22;2361;49.540;8.390;2024-03-17T03:34:01;8.10;99.90
4695;DHT22;2361;49.540;8.390;2024-03-17T03:36:23;8.00;99.90
4695;DHT22;2361;49.540;8.390;2024-03-17T03:38:44;7.90;99.90
4695;DHT22;2361;49.540;8.390;2024-03-17T03:41:14;7.80;99.90
4695;DHT22;2361;49.540;8.390;2024-03-17T03:43:35;7.80;99.90
4695;DHT22;2361;49.540;8.390;2024-03-17T03:45:56;7.80;99.90
4695;DHT22;2361;49.540;8.390;2024-03-17T03:48:16;7.80;99.90
4695;DHT22;2361;49.540;8.390;2024-03-17T03:50:38;7.80;99.90
4695;DHT22;2361;49.540;8.390;2024-03-17T03:52:59;7.90;99.90
4695;DHT22;2361;49.540;8.390;2024-03-17T03:55:20;7.80;99.90
4695;DHT22;2361;49.540;8.390;2024-03-17T03:57:44;7.80;99.90
4695;DHT22;2361;49.540;8.390;2024-03-17T04:00:08;7.80;99.90
4695;DHT22;2361;49.540;8.390;2024-03-17T04:02:35;7.80;99.90
4695;DHT22;2361;49.540;8.390;2024-03-17T04:04:57;7.80;99.90
4695;DHT22;2361;49.540;8.390;2024-03-17T04:07:18;7.80;99.90
4695;DHT22;2361;49.540;8.390;2024-03-17T04:09:39;7.80;99.90
4695;DHT22;2361;49.540;8.390;2024-03-17T04:12:00;7.80;99.90
4695;DHT22;2361;49.540;8.390;2024-03-17T04:14:20;7.80;99.90
4695;DHT22;2361;49.540;8.390;2024-03-17T04:16:41;7.70;99.90
4695;DHT22;2361;49.540;8.390;2024-03-17T04:19:02;7.70;99.90
4695;DHT22;2361;49.540;8.390;2024-03-17T04:21:23;7.70;99.90
4695;DHT22;2361;49.540;8.390;2024-03-17T04:23:44;7.70;99.90
4695;DHT22;2361;49.540;8.390;2024-03-17T04:26:04;7.70;99.90
4695;DHT22;2361;49.540;8.390;2024-03-17T04:28:28;7.60;99.90
4695;DHT22;2361;49.540;8.390;2024-03-17T04:30:48;7.60;99.90
4695;DHT22;2361;49.540;8.390;2024-03-17T04:33:09;7.60;99.90
4695;DHT22;2361;49.540;8.390;2024-03-17T04:35:35;7.60;99.90
4695;DHT22;2361;49.540;8.390;2024-03-17T04:37:56;7.60;99.90
4695;DHT22;2361;49.540;8.390;2024-03-17T04:40:17;7.60;99.90
4695;DHT22;2361;49.540;8.390;2024-03-17T04:42:39;7.60;99.90
4695;DHT22;2361;49.540;8.390;2024-03-17T04:45:00;7.60;99.90
4695;DHT22;2361;49.540;8.390;2024-03-17T04:47:21;7.60;99.90
4695;DHT22;2361;49.540;8.390;2024-03-17T04:49:43;7.60;99.90
4695;DHT22;2361;49.540;8.390;2024-03-17T04:52:05;7.60;99.90
4695;DHT22;2361;49.540;8.390;2024-03-17T04:54:26;7.70;99.90
4695;DHT22;2361;49.540;8.390;2024-03-17T04:56:47;7.70;99.90
4695;DHT22;2361;49.540;8.390;2024-03-17T04:59:08;7.80;99.90
4695;DHT22;2361;49.540;8.390;2024-03-17T05:01:29;7.70;99.90
4695;DHT22;2361;49.540;8.390;2024-03-17T05:03:52;7.60;99.90
4695;DHT22;2361;49.540;8.390;2024-03-17T05:06:13;7.50;99.90
4695;DHT22;2361;49.540;8.390;2024-03-17T05:08:34;7.50;99.90
4695;DHT22;2361;49.540;8.390;2024-03-17T05:11:02;7.50;99.90
4695;DHT22;2361;49.540;8.390;2024-03-17T05:13:27;7.50;99.90
4695;DHT22;2361;49.540;8.390;2024-03-17T05:15:50;7.60;99.90
4695;DHT22;2361;49.540;8.390;2024-03-17T05:18:11;7.60;99.90
4695;DHT22;2361;49.540;8.390;2024-03-17T05:20:32;7.60;99.90
4695;DHT22;2361;49.540;8.390;2024-03-17T05:22:53;7.60;99.90
4695;DHT22;2361;49.540;8.390;2024-03-17T05:25:13;7.60;99.90
4695;DHT22;2361;49.540;8.390;2024-03-17T05:27:34;7.60;99.90
4695;DHT22;2361;49.540;8.390;2024-03-17T05:29:55;7.60;99.90
4695;DHT22;2361;49.540;8.390;2024-03-17T05:32:16;7.70;99.90
4695;DHT22;2361;49.540;8.390;2024-03-17T05:34:37;7.70;99.90
4695;DHT22;2361;49.540;8.390;2024-03-17T05:36:58;7.70;99.90
4695;DHT22;2361;49.540;8.390;2024-03-17T05:39:19;7.80;99.90
4695;DHT22;2361;49.540;8.390;2024-03-17T05:41:40;7.90;99.90
4695;DHT22;2361;49.540;8.390;2024-03-17T05:44:04;7.90;99.90
4695;DHT22;2361;49.540;8.390;2024-03-17T05:46:25;8.00;99.90
4695;DHT22;2361;49.540;8.390;2024-03-17T05:48:49;8.00;99.90
4695;DHT22;2361;49.540;8.390;2024-03-17T05:51:11;8.00;99.90
4695;DHT22;2361;49.540;8.390;2024-03-17T05:53:32;8.00;99.90
4695;DHT22;2361;49.540;8.390;2024-03-17T05:55:53;8.10;99.90
4695;DHT22;2361;49.540;8.390;2024-03-17T05:58:16;8.10;99.90
4695;DHT22;2361;49.540;8.390;2024-03-17T06:00:39;8.10;99.90
4695;DHT22;2361;49.540;8.390;2024-03-17T06:03:00;8.10;99.90
4695;DHT22;2361;49.540;8.390;2024-03-17T06:05:21;8.10;99.90
4695;DHT22;2361;49.540;8.390;2024-03-17T06:07:42;8.20;99.90
4695;DHT22;2361;49.540;8.390;2024-03-17T06:10:03;8.20;99.90
4695;DHT22;2361;49.540;8.390;2024-03-17T06:12:24;8.30;99.90
4695;DHT22;2361;49.540;8.390;2024-03-17T06:14:44;8.20;99.90
4695;DHT22;2361;49.540;8.390;2024-03-17T06:17:05;8.20;99.90
4695;DHT22;2361;49.540;8.390;2024-03-17T06:19:30;8.20;99.90
4695;DHT22;2361;49.540;8.390;2024-03-17T06:21:51;8.30;99.90
4695;DHT22;2361;49.540;8.390;2024-03-17T06:24:12;8.30;99.90
4695;DHT22;2361;49.540;8.390;2024-03-17T06:26:32;8.20;99.90
4695;DHT22;2361;49.540;8.390;2024-03-17T06:28:54;8.20;99.90
4695;DHT22;2361;49.540;8.390;2024-03-17T06:31:17;8.30;99.90
4695;DHT22;2361;49.540;8.390;2024-03-17T06:33:38;8.30;99.90
4695;DHT22;2361;49.540;8.390;2024-03-17T06:36:02;8.40;99.90
4695;DHT22;2361;49.540;8.390;2024-03-17T06:38:25;8.50;99.90
4695;DHT22;2361;49.540;8.390;2024-03-17T06:40:50;8.70;99.90
4695;DHT22;2361;49.540;8.390;2024-03-17T06:43:11;9.40;99.90
4695;DHT22;2361;49.540;8.390;2024-03-17T06:45:32;10.20;99.90
4695;DHT22;2361;49.540;8.390;2024-03-17T06:47:53;11.00;99.90
4695;DHT22;2361;49.540;8.390;2024-03-17T06:50:14;11.80;99.90
4695;DHT22;2361;49.540;8.390;2024-03-17T06:52:36;12.50;99.90
4695;DHT22;2361;49.540;8.390;2024-03-17T06:54:57;13.10;99.90
4695;DHT22;2361;49.540;8.390;2024-03-17T06:57:19;13.50;99.90
4695;DHT22;2361;49.540;8.390;2024-03-17T06:59:39;13.40;99.90
4695;DHT22;2361;49.540;8.390;2024-03-17T07:02:00;13.20;99.90
4695;DHT22;2361;49.540;8.390;2024-03-17T07:04:21;13.40;99.90
4695;DHT22;2361;49.540;8.390;2024-03-17T07:06:42;13.80;99.90
4695;DHT22;2361;49.540;8.390;2024-03-17T07:09:03;14.30;99.90
4695;DHT22;2361;49.540;8.390;2024-03-17T07:11:24;15.00;99.90
4695;DHT22;2361;49.540;8.390;2024-03-17T07:13:45;15.30;99.90
4695;DHT22;2361;49.540;8.390;2024-03-17T07:16:06;15.20;99.90
4695;DHT22;2361;49.540;8.390;2024-03-17T07:18:28;15.00;99.90
4695;DHT22;2361;49.540;8.390;2024-03-17T07:20:49;14.90;99.90
4695;DHT22;2361;49.540;8.390;2024-03-17T07:23:09;14.90;99.90
4695;DHT22;2361;49.540;8.390;2024-03-17T07:25:31;15.20;99.90
4695;DHT22;2361;49.540;8.390;2024-03-17T07:27:52;15.60;99.90
4695;DHT22;2361;49.540;8.390;2024-03-17T07:30:13;16.00;99.90
4695;DHT22;2361;49.540;8.390;2024-03-17T07:32:33;16.30;99.90
4695;DHT22;2361;49.540;8.390;2024-03-17T07:34:54;16.80;99.90
4695;DHT22;2361;49.540;8.390;2024-03-17T07:37:15;17.30;99.90
4695;DHT22;2361;49.540;8.390;2024-03-17T07:39:36;18.00;99.90
4695;DHT22;2361;49.540;8.390;2024-03-17T07:41:57;18.60;99.90
4695;DHT22;2361;49.540;8.390;2024-03-17T07:44:17;19.10;99.20
4695;DHT22;2361;49.540;8.390;2024-03-17T07:46:38;19.40;98.60
4695;DHT22;2361;49.540;8.390;2024-03-17T07:49:00;19.80;98.30
4695;DHT22;2361;49.540;8.390;2024-03-17T07:51:20;20.40;96.30
4695;DHT22;2361;49.540;8.390;2024-03-17T07:53:43;21.00;94.80
4695;DHT22;2361;49.540;8.390;2024-03-17T07:56:07;21.20;93.70
4695;DHT22;2361;49.540;8.390;2024-03-17T07:58:30;21.00;93.30
4695;DHT22;2361;49.540;8.390;2024-03-17T08:00:57;20.80;92.90
4695;DHT22;2361;49.540;8.390;2024-03-17T08:03:20;20.40;92.80
4695;DHT22;2361;49.540;8.390;2024-03-17T08:05:40;20.00;93.20
4695;DHT22;2361;49.540;8.390;2024-03-17T08:08:02;19.90;93.30
4695;DHT22;2361;49.540;8.390;2024-03-17T08:10:23;19.60;93.10
4695;DHT22;2361;49.540;8.390;2024-03-17T08:12:44;19.30;93.50
4695;DHT22;2361;49.540;8.390;2024-03-17T08:15:06;18.90;93.70
4695;DHT22;2361;49.540;8.390;2024-03-17T08:17:27;18.90;94.10
4695;DHT22;2361;49.540;8.390;2024-03-17T08:19:47;18.90;94.20
4695;DHT22;2361;49.540;8.390;2024-03-17T08:22:08;19.00;94.10
4695;DHT22;2361;49.540;8.390;2024-03-17T08:24:29;19.20;93.40
4695;DHT22;2361;49.540;8.390;2024-03-17T08:26:50;19.00;93.70
4695;DHT22;2361;49.540;8.390;2024-03-17T08:29:11;18.70;93.70
4695;DHT22;2361;49.540;8.390;2024-03-17T08:31:32;18.50;93.90
4695;DHT22;2361;49.540;8.390;2024-03-17T08:33:53;18.50;93.80
4695;DHT22;2361;49.540;8.390;2024-03-17T08:36:17;18.30;93.80
4695;DHT22;2361;49.540;8.390;2024-03-17T08:38:39;17.90;94.30
4695;DHT22;2361;49.540;8.390;2024-03-17T08:41:07;17.70;94.30
4695;DHT22;2361;49.540;8.390;2024-03-17T08:43:29;17.40;94.60
4695;DHT22;2361;49.540;8.390;2024-03-17T08:45:59;16.90;95.00
4695;DHT22;2361;49.540;8.390;2024-03-17T08:48:22;16.60;95.80
4695;DHT22;2361;49.540;8.390;2024-03-17T08:50:50;16.50;96.20
4695;DHT22;2361;49.540;8.390;2024-03-17T08:53:11;16.70;96.40
4695;DHT22;2361;49.540;8.390;2024-03-17T08:55:32;16.80;96.40
4695;DHT22;2361;49.540;8.390;2024-03-17T08:57:52;16.80;96.60
4695;DHT22;2361;49.540;8.390;2024-03-17T09:00:13;17.00;96.70
4695;DHT22;2361;49.540;8.390;2024-03-17T09:02:35;17.80;95.80
4695;DHT22;2361;49.540;8.390;2024-03-17T09:04:56;18.60;94.50
4695;DHT22;2361;49.540;8.390;2024-03-17T09:07:17;18.70;94.10
4695;DHT22;2361;49.540;8.390;2024-03-17T09:09:37;18.70;93.80
4695;DHT22;2361;49.540;8.390;2024-03-17T09:11:58;18.60;93.90
4695;DHT22;2361;49.540;8.390;2024-03-17T09:14:19;18.40;94.10
4695;DHT22;2361;49.540;8.390;2024-03-17T09:16:41;18.10;94.30
4695;DHT22;2361;49.540;8.390;2024-03-17T09:19:01;18.20;94.60
4695;DHT22;2361;49.540;8.390;2024-03-17T09:21:22;18.50;94.20
4695;DHT22;2361;49.540;8.390;2024-03-17T09:23:43;18.60;93.70
4695;DHT22;2361;49.540;8.390;2024-03-17T09:26:06;18.40;93.90
4695;DHT22;2361;49.540;8.390;2024-03-17T09:28:30;18.20;94.30
4695;DHT22;2361;49.540;8.390;2024-03-17T09:30:51;18.50;94.40
4695;DHT22;2361;49.540;8.390;2024-03-17T09:33:12;19.30;93.80
4695;DHT22;2361;49.540;8.390;2024-03-17T09:35:33;19.80;92.80
4695;DHT22;2361;49.540;8.390;2024-03-17T09:37:54;19.90;92.50
4695;DHT22;2361;49.540;8.390;2024-03-17T09:40:15;20.30;92.00
4695;DHT22;2361;49.540;8.390;2024-03-17T09:42:36;21.10;91.30
4695;DHT22;2361;49.540;8.390;2024-03-17T09:44:58;21.90;90.10
4695;DHT22;2361;49.540;8.390;2024-03-17T09:47:20;22.40;87.50
4695;DHT22;2361;49.540;8.390;2024-03-17T09:49:44;22.30;86.50
4695;DHT22;2361;49.540;8.390;2024-03-17T09:52:09;22.10;86.40
4695;DHT22;2361;49.540;8.390;2024-03-17T09:54:34;22.20;86.50
4695;DHT22;2361;49.540;8.390;2024-03-17T09:56:55;22.40;85.70
4695;DHT22;2361;49.540;8.390;2024-03-17T09:59:16;22.60;85.20
4695;DHT22;2361;49.540;8.390;2024-03-17T10:01:37;22.90;84.00
4695;DHT22;2361;49.540;8.390;2024-03-17T10:03:58;23.00;82.70
4695;DHT22;2361;49.540;8.390;2024-03-17T10:06:23;23.00;82.30
4695;DHT22;2361;49.540;8.390;2024-03-17T10:08:56;23.20;81.90
4695;DHT22;2361;49.540;8.390;2024-03-17T10:11:18;23.40;81.10
4695;DHT22;2361;49.540;8.390;2024-03-17T10:13:46;24.00;79.90
4695;DHT22;2361;49.540;8.390;2024-03-17T10:16:24;24.80;77.90
4695;DHT22;2361;49.540;8.390;2024-03-17T10:18:45;25.60;75.20
4695;DHT22;2361;49.540;8.390;2024-03-17T10:21:25;25.70;73.20
4695;DHT22;2361;49.540;8.390;2024-03-17T10:23:45;25.60;72.20
4695;DHT22;2361;49.540;8.390;2024-03-17T10:26:14;25.40;71.60
4695;DHT22;2361;49.540;8.390;2024-03-17T10:28:35;25.20;71.50
4695;DHT22;2361;49.540;8.390;2024-03-17T10:30:58;25.40;71.10
4695;DHT22;2361;49.540;8.390;2024-03-17T10:33:24;25.50;70.80
4695;DHT22;2361;49.540;8.390;2024-03-17T10:35:48;25.40;70.70
4695;DHT22;2361;49.540;8.390;2024-03-17T10:38:09;25.20;70.50
4695;DHT22;2361;49.540;8.390;2024-03-17T10:40:33;24.90;70.60
4695;DHT22;2361;49.540;8.390;2024-03-17T10:42:58;24.40;71.40
4695;DHT22;2361;49.540;8.390;2024-03-17T10:45:21;24.00;72.20
4695;DHT22;2361;49.540;8.390;2024-03-17T10:47:48;23.80;72.90
4695;DHT22;2361;49.540;8.390;2024-03-17T10:50:17;23.20;74.10
4695;DHT22;2361;49.540;8.390;2024-03-17T10:52:41;22.40;75.60
4695;DHT22;2361;49.540;8.390;2024-03-17T10:55:08;21.60;77.10
4695;DHT22;2361;49.540;8.390;2024-03-17T10:59:57;20.20;80.90
4695;DHT22;2361;49.540;8.390;2024-03-17T11:02:23;19.80;82.60
4695;DHT22;2361;49.540;8.390;2024-03-17T11:04:45;19.30;83.90
4695;DHT22;2361;49.540;8.390;2024-03-17T11:07:15;18.90;85.10
4695;DHT22;2361;49.540;8.390;2024-03-17T11:09:36;18.40;86.10
4695;DHT22;2361;49.540;8.390;2024-03-17T11:11:57;18.00;87.20
4695;DHT22;2361;49.540;8.390;2024-03-17T11:14:19;17.60;88.60
4695;DHT22;2361;49.540;8.390;2024-03-17T11:16:40;17.40;90.10
4695;DHT22;2361;49.540;8.390;2024-03-17T11:19:07;17.30;90.60
4695;DHT22;2361;49.540;8.390;2024-03-17T11:21:28;17.40;90.80
4695;DHT22;2361;49.540;8.390;2024-03-17T11:23:57;17.50;91.00
4695;DHT22;2361;49.540;8.390;2024-03-17T11:26:26;17.50;91.20
4695;DHT22;2361;49.540;8.390;2024-03-17T11:28:48;17.50;91.70
4695;DHT22;2361;49.540;8.390;2024-03-17T11:34:02;17.30;91.30
4695;DHT22;2361;49.540;8.390;2024-03-17T11:39:10;16.90;92.50
4695;DHT22;2361;49.540;8.390;2024-03-17T11:41:52;16.70;93.10
4695;DHT22;2361;49.540;8.390;2024-03-17T11:46:41;16.80;93.80
4695;DHT22;2361;49.540;8.390;2024-03-17T11:49:05;16.90;93.80
4695;DHT22;2361;49.540;8.390;2024-03-17T11:51:27;17.10;93.60
4695;DHT22;2361;49.540;8.390;2024-03-17T11:53:58;17.10;93.60
4695;DHT22;2361;49.540;8.390;2024-03-17T11:56:23;17.00;92.80
4695;DHT22;2361;49.540;8.390;2024-03-17T11:58:44;17.00;92.40
4695;DHT22;2361;49.540;8.390;2024-03-17T12:01:05;17.00;92.40
4695;DHT22;2361;49.540;8.390;2024-03-17T12:03:26;17.00;92.50
4695;DHT22;2361;49.540;8.390;2024-03-17T12:05:47;17.00;92.30
4695;DHT22;2361;49.540;8.390;2024-03-17T12:08:20;16.90;92.20
4695;DHT22;2361;49.540;8.390;2024-03-17T12:10:47;16.90;92.50
4695;DHT22;2361;49.540;8.390;2024-03-17T12:13:12;16.90;92.40
4695;DHT22;2361;49.540;8.390;2024-03-17T12:15:33;16.80;92.60
4695;DHT22;2361;49.540;8.390;2024-03-17T12:17:54;16.70;92.60
4695;DHT22;2361;49.540;8.390;2024-03-17T12:20:19;16.80;92.30
4695;DHT22;2361;49.540;8.390;2024-03-17T12:22:40;16.60;92.40
4695;DHT22;2361;49.540;8.390;2024-03-17T12:25:02;16.40;92.90
4695;DHT22;2361;49.540;8.390;2024-03-17T12:27:36;16.30;93.20
4695;DHT22;2361;49.540;8.390;2024-03-17T12:29:58;16.20;93.20
4695;DHT22;2361;49.540;8.390;2024-03-17T12:32:22;16.10;93.20
4695;DHT22;2361;49.540;8.390;2024-03-17T12:34:54;16.10;93.70
4695;DHT22;2361;49.540;8.390;2024-03-17T12:37:20;16.00;93.80
4695;DHT22;2361;49.540;8.390;2024-03-17T12:39:41;16.00;94.30
4695;DHT22;2361;49.540;8.390;2024-03-17T12:42:06;15.90;94.20
4695;DHT22;2361;49.540;8.390;2024-03-17T12:44:27;15.90;94.40
4695;DHT22;2361;49.540;8.390;2024-03-17T12:46:48;15.80;94.30
4695;DHT22;2361;49.540;8.390;2024-03-17T12:49:15;15.90;94.30
4695;DHT22;2361;49.540;8.390;2024-03-17T12:51:36;15.80;94.40
4695;DHT22;2361;49.540;8.390;2024-03-17T12:54:14;15.80;94.20
4695;DHT22;2361;49.540;8.390;2024-03-17T12:56:35;15.80;94.10
4695;DHT22;2361;49.540;8.390;2024-03-17T12:59:14;15.80;94.50
4695;DHT22;2361;49.540;8.390;2024-03-17T13:02:01;15.80;94.70
4695;DHT22;2361;49.540;8.390;2024-03-17T13:04:22;15.70;95.00
4695;DHT22;2361;49.540;8.390;2024-03-17T13:06:43;15.70;94.90
4695;DHT22;2361;49.540;8.390;2024-03-17T13:09:03;15.80;95.00
4695;DHT22;2361;49.540;8.390;2024-03-17T13:11:24;15.80;95.20
4695;DHT22;2361;49.540;8.390;2024-03-17T13:13:45;15.80;95.40
4695;DHT22;2361;49.540;8.390;2024-03-17T13:16:06;15.70;95.60
4695;DHT22;2361;49.540;8.390;2024-03-17T13:18:28;15.70;95.30
4695;DHT22;2361;49.540;8.390;2024-03-17T13:20:49;15.70;95.50
4695;DHT22;2361;49.540;8.390;2024-03-17T13:23:18;15.70;95.20
4695;DHT22;2361;49.540;8.390;2024-03-17T13:25:40;15.70;95.70
4695;DHT22;2361;49.540;8.390;2024-03-17T13:28:04;15.70;96.00
4695;DHT22;2361;49.540;8.390;2024-03-17T13:30:27;15.70;96.30
4695;DHT22;2361;49.540;8.390;2024-03-17T13:32:52;15.80;96.10
4695;DHT22;2361;49.540;8.390;2024-03-17T13:35:19;15.90;96.30
4695;DHT22;2361;49.540;8.390;2024-03-17T13:37:40;15.80;96.30
4695;DHT22;2361;49.540;8.390;2024-03-17T13:40:01;15.80;96.60
4695;DHT22;2361;49.540;8.390;2024-03-17T13:42:25;15.80;96.70
4695;DHT22;2361;49.540;8.390;2024-03-17T13:44:46;15.80;96.90
4695;DHT22;2361;49.540;8.390;2024-03-17T13:47:07;15.80;96.80
4695;DHT22;2361;49.540;8.390;2024-03-17T13:49:29;15.80;96.90
4695;DHT22;2361;49.540;8.390;2024-03-17T13:51:50;15.80;97.50
4695;DHT22;2361;49.540;8.390;2024-03-17T13:54:10;15.80;97.00
4695;DHT22;2361;49.540;8.390;2024-03-17T13:56:32;15.80;97.20
4695;DHT22;2361;49.540;8.390;2024-03-17T13:58:53;15.90;97.40
4695;DHT22;2361;49.540;8.390;2024-03-17T14:01:13;15.90;97.20
4695;DHT22;2361;49.540;8.390;2024-03-17T14:03:34;15.90;97.10
4695;DHT22;2361;49.540;8.390;2024-03-17T14:05:55;15.90;97.30
4695;DHT22;2361;49.540;8.390;2024-03-17T14:08:16;15.90;97.30
4695;DHT22;2361;49.540;8.390;2024-03-17T14:10:37;15.90;97.70
4695;DHT22;2361;49.540;8.390;2024-03-17T14:12:58;15.90;97.30
4695;DHT22;2361;49.540;8.390;2024-03-17T14:15:19;16.00;97.30
4695;DHT22;2361;49.540;8.390;2024-03-17T14:17:46;16.10;97.80
4695;DHT22;2361;49.540;8.390;2024-03-17T14:20:10;16.10;98.20
4695;DHT22;2361;49.540;8.390;2024-03-17T14:22:31;16.20;97.80
4695;DHT22;2361;49.540;8.390;2024-03-17T14:24:51;16.20;97.60
4695;DHT22;2361;49.540;8.390;2024-03-17T14:27:13;16.30;97.70
4695;DHT22;2361;49.540;8.390;2024-03-17T14:29:34;16.40;97.30
4695;DHT22;2361;49.540;8.390;2024-03-17T14:31:55;16.40;97.70
4695;DHT22;2361;49.540;8.390;2024-03-17T14:34:15;16.50;97.30
4695;DHT22;2361;49.540;8.390;2024-03-17T14:36:37;16.50;97.40
4695;DHT22;2361;49.540;8.390;2024-03-17T14:38:58;16.40;97.30
4695;DHT22;2361;49.540;8.390;2024-03-17T14:41:20;16.30;97.50
4695;DHT22;2361;49.540;8.390;2024-03-17T14:43:40;16.30;97.60
4695;DHT22;2361;49.540;8.390;2024-03-17T14:46:02;16.20;98.00
4695;DHT22;2361;49.540;8.390;2024-03-17T14:48:23;16.10;98.00
4695;DHT22;2361;49.540;8.390;2024-03-17T14:50:44;16.10;98.20
4695;DHT22;2361;49.540;8.390;2024-03-17T14:53:05;16.10;98.30
4695;DHT22;2361;49.540;8.390;2024-03-17T14:55:25;16.20;98.00
4695;DHT22;2361;49.540;8.390;2024-03-17T14:57:46;16.10;98.20
4695;DHT22;2361;49.540;8.390;2024-03-17T15:00:09;16.10;98.40
4695;DHT22;2361;49.540;8.390;2024-03-17T15:02:36;16.20;98.40
4695;DHT22;2361;49.540;8.390;2024-03-17T15:04:57;16.20;98.50
4695;DHT22;2361;49.540;8.390;2024-03-17T15:07:18;16.20;98.40
4695;DHT22;2361;49.540;8.390;2024-03-17T15:09:39;16.20;98.50
4695;DHT22;2361;49.540;8.390;2024-03-17T15:12:01;16.10;99.00
4695;DHT22;2361;49.540;8.390;2024-03-17T15:14:24;16.00;98.90
4695;DHT22;2361;49.540;8.390;2024-03-17T15:16:45;16.00;98.80
4695;DHT22;2361;49.540;8.390;2024-03-17T15:19:06;15.90;99.00
4695;DHT22;2361;49.540;8.390;2024-03-17T15:21:27;15.90;99.10
4695;DHT22;2361;49.540;8.390;2024-03-17T15:23:48;15.90;99.20
4695;DHT22;2361;49.540;8.390;2024-03-17T15:26:09;15.90;99.30
4695;DHT22;2361;49.540;8.390;2024-03-17T15:28:30;15.90;99.40
4695;DHT22;2361;49.540;8.390;2024-03-17T15:30:50;15.80;99.30
4695;DHT22;2361;49.540;8.390;2024-03-17T15:33:11;15.80;99.50
4695;DHT22;2361;49.540;8.390;2024-03-17T15:35:34;15.70;99.70
4695;DHT22;2361;49.540;8.390;2024-03-17T15:37:55;15.70;99.90
4695;DHT22;2361;49.540;8.390;2024-03-17T15:40:15;15.60;99.90
4695;DHT22;2361;49.540;8.390;2024-03-17T15:42:39;15.60;99.90
4695;DHT22;2361;49.540;8.390;2024-03-17T15:45:00;15.60;99.90
4695;DHT22;2361;49.540;8.390;2024-03-17T15:47:21;15.60;99.90
4695;DHT22;2361;49.540;8.390;2024-03-17T15:49:41;15.60;99.90